^^
Station Historical Data
 
Daily Summary for April 23, 2017 Units:  English    Metric   Both
« Previous Day
Next Day »
Daily Weekly Monthly Yearly Custom
  Current: High: Low: Average:
Temperature: 54.3 °F 54.9 °F 54.0 °F 54.4 °F
Dew Point: 54.0 °F 54.3 °F 53.4 °F 53.9 °F
Humidity: 99% 99% 97% 98%
Wind Speed: 0.9mph 2.9mph 0.0mph 0.1mph
Wind Gust: 1.0mph 3.0mph - -
WindWNW - - SSE
Pressure: 29.90 in 29.98 in 29.90 in -
Precipitation: 0.51 in      
Historical Graphs
 
 
Tabular Data for April 23, 2017
Time Temperature Dew Point Pressure Wind Wind Speed Wind Gust Humidity Rainfall Rate (Hourly)
00:04 54.9 °F 54.0 °F 29.97 in Calm   1.0 mph 97% 0.06 in
00:09 54.9 °F 54.0 °F 29.97 in WSW 0.9 mph 1.0 mph 97% 0.04 in
00:14 54.9 °F 54.0 °F 29.97 in Calm   1.0 mph 97% 0.03 in
00:19 54.9 °F 54.0 °F 29.98 in Calm     97% 0.02 in
00:24 54.9 °F 54.3 °F 29.98 in Calm     98% 0.02 in
00:29 54.9 °F 54.3 °F 29.97 in Calm   1.0 mph 98% 0.01 in
00:34 54.9 °F 54.3 °F 29.98 in Calm     98% 0.01 in
00:39 54.7 °F 54.1 °F 29.98 in Calm     98% 0.01 in
00:44 54.9 °F 54.3 °F 29.98 in Calm     98% 0.00 in
00:49 54.9 °F 54.3 °F 29.98 in Calm     98% 0.00 in
00:55 54.9 °F 54.3 °F 29.98 in Calm     98% 0.00 in
01:00 54.9 °F 54.3 °F 29.98 in Calm   1.0 mph 98% 0.01 in
01:05 54.9 °F 54.3 °F 29.98 in NE 2.9 mph 3.0 mph 98% 0.01 in
01:10 54.9 °F 54.3 °F 29.97 in ENE 0.9 mph 1.0 mph 98% 0.02 in
01:15 54.7 °F 54.1 °F 29.97 in ENE 2.0 mph 3.0 mph 98% 0.03 in
01:20 54.7 °F 54.1 °F 29.97 in NNE 0.9 mph 2.0 mph 98% 0.04 in
01:25 54.7 °F 54.1 °F 29.97 in Calm     98% 0.07 in
01:30 54.7 °F 54.1 °F 29.97 in Calm     98% 0.08 in
01:35 54.7 °F 54.1 °F 29.97 in Calm   3.0 mph 98% 0.09 in
01:40 54.7 °F 54.1 °F 29.98 in Calm     98% 0.10 in
01:45 54.7 °F 54.1 °F 29.97 in Calm     98% 0.11 in
01:50 54.7 °F 54.1 °F 29.97 in Calm   1.0 mph 98% 0.11 in
01:55 54.7 °F 54.1 °F 29.96 in Calm     98% 0.12 in
02:00 54.7 °F 54.1 °F 29.96 in North 0.9 mph 1.0 mph 98% 0.11 in
02:05 54.5 °F 54.0 °F 29.96 in Calm   1.0 mph 98% 0.11 in
02:10 54.5 °F 54.0 °F 29.96 in Calm   1.0 mph 98% 0.10 in
02:15 54.3 °F 53.8 °F 29.96 in Calm   1.0 mph 98% 0.09 in
02:20 54.3 °F 53.8 °F 29.96 in Calm   1.0 mph 98% 0.07 in
02:25 54.5 °F 54.0 °F 29.96 in Calm     98% 0.05 in
02:30 54.5 °F 54.0 °F 29.95 in Calm     98% 0.05 in
02:35 54.7 °F 54.1 °F 29.95 in Calm     98% 0.04 in
02:41 54.5 °F 54.0 °F 29.95 in Calm     98% 0.03 in
02:46 54.5 °F 54.0 °F 29.95 in Calm     98% 0.02 in
02:51 54.5 °F 54.0 °F 29.94 in Calm     98% 0.01 in
02:56 54.3 °F 53.8 °F 29.93 in Calm     98% 0.01 in
03:01 54.3 °F 53.8 °F 29.93 in Calm     98% 0.01 in
03:06 54.3 °F 53.8 °F 29.93 in Calm     98% 0.01 in
03:11 54.3 °F 53.8 °F 29.93 in Calm     98% 0.01 in
03:21 54.3 °F 53.8 °F 29.93 in Calm     98% 0.01 in
03:26 54.3 °F 53.8 °F 29.93 in Calm     98% 0.01 in
03:31 54.3 °F 53.8 °F 29.93 in Calm     98% 0.00 in
03:36 54.3 °F 53.8 °F 29.93 in Calm     98% 0.00 in
03:41 54.3 °F 53.8 °F 29.93 in Calm     98% 0.00 in
03:46 54.3 °F 53.8 °F 29.93 in Calm     98% 0.00 in
03:51 54.3 °F 53.8 °F 29.93 in Calm     98% 0.00 in
03:57 54.1 °F 53.6 °F 29.92 in Calm     98% 0.00 in
04:02 54.1 °F 53.6 °F 29.92 in Calm     98% 0.00 in
04:07 54.1 °F 53.6 °F 29.92 in Calm     98% 0.00 in
04:12 54.0 °F 53.4 °F 29.92 in Calm     98% 0.00 in
04:17 54.0 °F 53.4 °F 29.92 in Calm     98% 0.00 in
04:22 54.0 °F 53.4 °F 29.91 in Calm     98% 0.00 in
04:27 54.0 °F 53.4 °F 29.91 in Calm     98% 0.00 in
04:32 54.0 °F 53.4 °F 29.91 in Calm     98% 0.01 in
04:37 54.1 °F 53.6 °F 29.92 in Calm     98% 0.01 in
04:42 54.1 °F 53.6 °F 29.92 in Calm     98% 0.01 in
04:47 54.3 °F 54.0 °F 29.92 in Calm     99% 0.01 in
04:52 54.3 °F 54.0 °F 29.92 in Calm     99% 0.03 in
04:57 54.3 °F 54.0 °F 29.91 in Calm     99% 0.04 in
05:02 54.1 °F 53.8 °F 29.91 in Calm     99% 0.06 in
05:07 54.1 °F 53.8 °F 29.91 in Calm     99% 0.07 in
05:12 54.1 °F 53.8 °F 29.91 in Calm     99% 0.09 in
05:17 54.3 °F 54.0 °F 29.91 in Calm   1.0 mph 99% 0.10 in
05:22 54.3 °F 54.0 °F 29.91 in Calm     99% 0.11 in
05:27 54.1 °F 53.8 °F 29.91 in Calm   1.0 mph 99% 0.12 in
05:32 54.1 °F 53.8 °F 29.91 in Calm     99% 0.19 in
05:37 54.1 °F 53.8 °F 29.91 in Calm     99% 0.22 in
05:42 54.1 °F 53.8 °F 29.91 in Calm     99% 0.25 in
05:48 54.1 °F 53.8 °F 29.91 in Calm     99% 0.29 in
05:53 54.3 °F 54.0 °F 29.91 in Calm     99% 0.30 in
05:58 54.3 °F 54.0 °F 29.90 in WNW 0.9 mph 1.0 mph 99% 0.34 in
WheeWeather.com
Compliments of Weather Underground - 1.5 mb